createdAt,value
2023-02-19T00:01:16.484Z,10.60
2023-02-19T00:03:47.815Z,10.70
2023-02-19T00:06:14.602Z,10.60
2023-02-19T00:08:41.389Z,10.70
2023-02-19T00:11:13.614Z,10.70
2023-02-19T00:13:42.709Z,10.70
2023-02-19T00:16:30.930Z,10.70
2023-02-19T00:18:59.054Z,10.70
2023-02-19T00:21:26.370Z,10.70
2023-02-19T00:23:58.862Z,10.70
2023-02-19T00:26:25.952Z,10.70
2023-02-19T00:28:53.834Z,10.70
2023-02-19T00:31:31.427Z,10.70
2023-02-19T00:34:01.906Z,10.70
2023-02-19T00:36:30.356Z,10.60
2023-02-19T00:38:57.367Z,10.70
2023-02-19T00:41:26.650Z,10.70
2023-02-19T00:43:54.428Z,10.70
2023-02-19T00:46:25.410Z,10.70
2023-02-19T00:48:52.758Z,10.70
2023-02-19T00:51:21.268Z,10.70
2023-02-19T00:53:48.440Z,10.70
2023-02-19T00:56:15.128Z,10.60
2023-02-19T00:58:41.789Z,10.60
2023-02-19T01:01:09.738Z,10.60
2023-02-19T01:03:37.613Z,10.60
2023-02-19T01:06:05.852Z,10.60
2023-02-19T01:08:33.396Z,10.60
2023-02-19T01:11:01.288Z,10.60
2023-02-19T01:13:28.913Z,10.60
2023-02-19T01:16:07.422Z,10.50
2023-02-19T01:18:34.814Z,10.50
2023-02-19T01:21:07.181Z,10.50
2023-02-19T01:23:34.550Z,10.40
2023-02-19T01:26:07.768Z,10.40
2023-02-19T01:28:34.896Z,10.30
2023-02-19T01:31:06.356Z,10.30
2023-02-19T01:33:33.692Z,10.30
2023-02-19T01:36:03.199Z,10.20
2023-02-19T01:38:29.864Z,10.30
2023-02-19T01:40:58.961Z,10.20
2023-02-19T01:43:26.001Z,10.20
2023-02-19T01:45:52.882Z,10.20
2023-02-19T01:48:30.452Z,10.20
2023-02-19T01:51:06.073Z,10.20
2023-02-19T01:53:37.875Z,10.20
2023-02-19T01:56:05.198Z,10.20
2023-02-19T01:58:34.971Z,10.20
2023-02-19T02:01:04.441Z,10.20
2023-02-19T02:03:32.113Z,10.10
2023-02-19T02:06:07.243Z,10.20
2023-02-19T02:08:52.961Z,10.20
2023-02-19T02:11:20.746Z,10.20
2023-02-19T02:13:48.337Z,10.20
2023-02-19T02:16:55.252Z,10.20
2023-02-19T02:19:49.440Z,10.20
2023-02-19T02:22:26.728Z,10.20
2023-02-19T02:25:21.639Z,10.10
2023-02-19T02:27:57.293Z,10.10
2023-02-19T02:30:44.167Z,10.10
2023-02-19T02:33:34.997Z,10.10
2023-02-19T02:36:07.588Z,10.10
2023-02-19T02:38:38.023Z,10.10
2023-02-19T02:41:05.930Z,10.00
2023-02-19T02:43:33.155Z,10.00
2023-02-19T02:45:59.968Z,9.90
2023-02-19T02:48:35.591Z,9.90
2023-02-19T02:51:29.977Z,10.00
2023-02-19T02:54:16.548Z,9.90
2023-02-19T02:56:44.070Z,9.90
2023-02-19T02:59:13.590Z,10.00
2023-02-19T03:02:03.571Z,10.00
2023-02-19T03:05:02.704Z,10.00
2023-02-19T03:07:36.134Z,10.00
2023-02-19T03:10:07.833Z,10.10
2023-02-19T03:12:55.923Z,10.00
2023-02-19T03:15:50.893Z,10.10
2023-02-19T03:18:38.003Z,10.10
2023-02-19T03:21:07.179Z,10.00
2023-02-19T03:23:54.026Z,10.10
2023-02-19T03:26:21.797Z,10.10
2023-02-19T03:29:09.544Z,10.10
2023-02-19T03:31:39.546Z,10.10
2023-02-19T03:34:11.612Z,10.10
2023-02-19T03:36:46.106Z,10.00
2023-02-19T03:39:17.520Z,10.10
2023-02-19T03:42:22.655Z,10.10
2023-02-19T03:45:01.661Z,10.10
2023-02-19T03:48:04.045Z,10.10
2023-02-19T03:50:45.696Z,10.20
2023-02-19T03:53:32.427Z,10.20
2023-02-19T03:56:10.523Z,10.20
2023-02-19T03:58:55.521Z,10.10
2023-02-19T04:01:29.865Z,10.10
2023-02-19T04:04:09.032Z,10.10
2023-02-19T04:06:38.049Z,10.20
2023-02-19T04:09:08.743Z,10.20
2023-02-19T04:11:36.657Z,10.20
2023-02-19T04:14:22.149Z,10.20
2023-02-19T04:16:55.675Z,10.20
2023-02-19T04:19:26.287Z,10.20
2023-02-19T04:21:55.704Z,10.10
2023-02-19T04:24:28.683Z,10.10
2023-02-19T04:26:55.811Z,10.10
2023-02-19T04:29:22.645Z,10.10
2023-02-19T04:31:49.436Z,10.10
2023-02-19T04:34:16.109Z,10.10
2023-02-19T04:36:42.786Z,10.10
2023-02-19T04:39:09.455Z,10.20
2023-02-19T04:41:36.137Z,10.20
2023-02-19T04:44:02.839Z,10.10
2023-02-19T04:46:29.597Z,10.10
2023-02-19T04:48:56.317Z,10.10
2023-02-19T04:51:23.168Z,10.10
2023-02-19T04:53:49.801Z,10.10
2023-02-19T04:56:17.209Z,10.10
2023-02-19T04:58:45.531Z,10.10
2023-02-19T05:01:12.877Z,10.10
2023-02-19T05:03:39.781Z,10.10
2023-02-19T05:06:10.094Z,10.10
2023-02-19T05:08:37.323Z,10.20
2023-02-19T05:11:06.047Z,10.20
2023-02-19T05:13:33.001Z,10.20
2023-02-19T05:16:02.522Z,10.20
2023-02-19T05:18:30.880Z,10.20
2023-02-19T05:20:58.857Z,10.20
2023-02-19T05:23:26.500Z,10.10
2023-02-19T05:25:53.791Z,10.10
2023-02-19T05:28:21.001Z,10.10
2023-02-19T05:30:52.787Z,10.20
2023-02-19T05:33:21.843Z,10.10
2023-02-19T05:35:53.891Z,10.20
2023-02-19T05:38:21.433Z,10.10
2023-02-19T05:40:48.315Z,10.10
2023-02-19T05:43:15.825Z,10.10
2023-02-19T05:45:42.934Z,10.20
2023-02-19T05:48:12.557Z,10.20
2023-02-19T05:50:39.999Z,10.20
2023-02-19T05:53:06.853Z,10.20
2023-02-19T05:55:36.800Z,10.20
2023-02-19T05:58:03.999Z,10.20
2023-02-19T06:00:32.286Z,10.20
2023-02-19T06:02:59.019Z,10.20
2023-02-19T06:05:25.767Z,10.20
2023-02-19T06:07:52.424Z,10.20
2023-02-19T06:10:19.579Z,10.20
2023-02-19T06:12:46.348Z,10.20
2023-02-19T06:15:13.080Z,10.20
2023-02-19T06:17:39.743Z,10.20
2023-02-19T06:20:06.881Z,10.30
2023-02-19T06:22:33.544Z,10.30
2023-02-19T06:25:00.212Z,10.20
2023-02-19T06:27:27.005Z,10.30
2023-02-19T06:29:53.687Z,10.30
2023-02-19T06:32:20.654Z,10.20
2023-02-19T06:34:47.449Z,10.20
2023-02-19T06:37:14.119Z,10.30
2023-02-19T06:39:40.797Z,10.30
2023-02-19T06:42:07.508Z,10.30
2023-02-19T06:44:34.245Z,10.30
2023-02-19T06:47:01.007Z,10.30
2023-02-19T06:49:27.766Z,10.30
2023-02-19T06:51:54.441Z,10.30
2023-02-19T06:54:21.127Z,10.30
2023-02-19T06:56:47.892Z,10.40
2023-02-19T06:59:18.917Z,10.30
2023-02-19T07:01:46.276Z,10.40
2023-02-19T07:04:13.097Z,10.40
2023-02-19T07:06:40.092Z,10.40
2023-02-19T07:09:08.408Z,10.40
2023-02-19T07:11:38.027Z,10.40
2023-02-19T07:14:07.799Z,10.40
2023-02-19T07:16:35.107Z,10.40
2023-02-19T07:19:02.515Z,10.40
2023-02-19T07:21:30.202Z,10.50
2023-02-19T07:23:57.808Z,10.50
2023-02-19T07:26:25.032Z,10.40
2023-02-19T07:28:52.251Z,10.40
2023-02-19T07:31:20.976Z,10.50
2023-02-19T07:33:48.286Z,10.50
2023-02-19T07:36:16.998Z,10.50
2023-02-19T07:38:43.961Z,10.50
2023-02-19T07:41:11.096Z,10.60
2023-02-19T07:43:38.985Z,10.60
2023-02-19T07:46:11.435Z,10.50
2023-02-19T07:48:39.523Z,10.50
2023-02-19T07:51:07.938Z,10.50
2023-02-19T07:53:35.675Z,10.50
2023-02-19T07:56:07.494Z,10.50
2023-02-19T07:58:35.087Z,10.50
2023-02-19T08:01:42.261Z,10.60
2023-02-19T08:04:09.354Z,10.60
2023-02-19T08:06:36.038Z,10.60
2023-02-19T08:09:04.282Z,10.60
2023-02-19T08:11:49.454Z,10.60
2023-02-19T08:14:16.374Z,10.60
2023-02-19T08:16:52.461Z,10.70
2023-02-19T08:19:19.496Z,10.70
2023-02-19T08:21:46.358Z,10.80
2023-02-19T08:24:13.042Z,10.70
2023-02-19T08:26:39.740Z,10.80
2023-02-19T08:29:06.735Z,10.80
2023-02-19T08:31:34.571Z,10.90
2023-02-19T08:34:01.321Z,11.00
2023-02-19T08:36:28.142Z,11.10
2023-02-19T08:38:54.873Z,11.10
2023-02-19T08:41:22.055Z,11.10
2023-02-19T08:43:49.253Z,11.10
2023-02-19T08:46:16.444Z,11.10
2023-02-19T08:48:43.152Z,11.20
2023-02-19T08:51:11.857Z,11.20
2023-02-19T08:53:40.605Z,11.20
2023-02-19T08:56:09.943Z,11.30
2023-02-19T08:58:37.430Z,11.30
2023-02-19T09:01:09.608Z,11.50
2023-02-19T09:03:36.729Z,11.50
2023-02-19T09:06:03.530Z,11.50
2023-02-19T09:08:30.261Z,11.60
2023-02-19T09:11:02.084Z,11.70
2023-02-19T09:13:29.071Z,11.80
2023-02-19T09:15:57.371Z,11.70
2023-02-19T09:18:25.479Z,11.80
2023-02-19T09:20:52.139Z,11.70
2023-02-19T09:23:18.962Z,11.60
2023-02-19T09:25:45.806Z,11.60
2023-02-19T09:28:12.533Z,11.40
2023-02-19T09:30:39.184Z,11.40
2023-02-19T09:33:06.036Z,11.30
2023-02-19T09:35:32.730Z,11.20
2023-02-19T09:38:00.964Z,11.20
2023-02-19T09:40:27.863Z,11.20
2023-02-19T09:42:54.601Z,11.10
2023-02-19T09:45:26.069Z,11.10
2023-02-19T09:47:58.059Z,11.00
2023-02-19T09:50:53.420Z,11.00
2023-02-19T09:53:25.385Z,10.90
2023-02-19T09:55:53.144Z,11.00
2023-02-19T09:58:43.821Z,10.90
2023-02-19T10:01:12.157Z,10.80
2023-02-19T10:03:41.991Z,10.90
2023-02-19T10:06:20.265Z,10.90
2023-02-19T10:08:48.330Z,11.00
2023-02-19T10:11:16.177Z,11.10
2023-02-19T10:14:01.886Z,11.10
2023-02-19T10:16:29.595Z,11.00
2023-02-19T10:18:56.666Z,11.00
2023-02-19T10:21:27.958Z,11.10
2023-02-19T10:23:57.997Z,11.20
2023-02-19T10:26:24.945Z,11.20
2023-02-19T10:28:51.639Z,11.30
2023-02-19T10:31:21.530Z,11.40
2023-02-19T10:33:52.403Z,11.40
2023-02-19T10:36:29.861Z,11.40
2023-02-19T10:38:59.814Z,11.50
2023-02-19T10:41:27.920Z,11.50
2023-02-19T10:44:07.392Z,11.50
2023-02-19T10:46:41.908Z,11.50
2023-02-19T10:49:21.459Z,11.50
2023-02-19T10:51:48.916Z,11.50
2023-02-19T10:54:36.076Z,11.70
2023-02-19T10:57:32.618Z,12.00
2023-02-19T11:00:13.397Z,12.10
2023-02-19T11:02:40.114Z,12.00
2023-02-19T11:05:06.712Z,12.00
2023-02-19T11:07:33.542Z,12.00
2023-02-19T11:10:00.776Z,12.30
2023-02-19T11:12:30.854Z,12.40
2023-02-19T11:14:59.432Z,12.70
2023-02-19T11:17:30.507Z,12.90
2023-02-19T11:20:00.641Z,12.90
2023-02-19T11:22:35.366Z,13.00
2023-02-19T11:25:17.786Z,12.90
2023-02-19T11:27:55.729Z,13.00
2023-02-19T11:30:36.238Z,12.90
2023-02-19T11:33:14.124Z,12.80
2023-02-19T11:35:40.788Z,12.50
2023-02-19T11:38:10.981Z,12.30
2023-02-19T11:40:45.790Z,12.40
2023-02-19T11:43:33.630Z,12.30
2023-02-19T11:46:09.708Z,12.40
2023-02-19T11:49:11.746Z,12.50
2023-02-19T11:51:58.853Z,12.40
2023-02-19T11:54:49.240Z,12.30
2023-02-19T11:57:20.414Z,12.50
2023-02-19T12:00:20.298Z,12.60
2023-02-19T12:03:25.667Z,12.70
2023-02-19T12:05:59.514Z,12.50
2023-02-19T12:09:13.413Z,12.60
2023-02-19T12:11:53.511Z,12.70
2023-02-19T12:14:29.125Z,12.60
2023-02-19T12:17:34.559Z,12.50
2023-02-19T12:20:31.913Z,12.50
2023-02-19T12:23:21.761Z,12.60
2023-02-19T12:26:28.668Z,12.40
2023-02-19T12:29:14.204Z,12.40
2023-02-19T12:31:53.384Z,12.30
2023-02-19T12:34:36.237Z,12.50
2023-02-19T12:37:17.929Z,12.90
2023-02-19T12:39:56.511Z,13.30
2023-02-19T12:43:02.748Z,13.40
2023-02-19T12:45:55.992Z,13.40
2023-02-19T12:48:46.874Z,13.20
2023-02-19T12:51:57.459Z,13.10
2023-02-19T12:54:38.729Z,13.10
2023-02-19T12:57:25.083Z,13.00
2023-02-19T13:00:02.953Z,12.80
2023-02-19T13:02:44.270Z,12.50
2023-02-19T13:05:28.093Z,12.50
2023-02-19T13:08:06.793Z,12.50
2023-02-19T13:10:59.333Z,12.40
2023-02-19T13:13:42.286Z,12.50
2023-02-19T13:16:15.023Z,12.40
2023-02-19T13:18:45.433Z,12.30
2023-02-19T13:21:37.404Z,12.30
2023-02-19T13:24:09.157Z,12.30
2023-02-19T13:26:55.408Z,12.30
2023-02-19T13:29:34.633Z,12.30
2023-02-19T13:32:27.125Z,12.30
2023-02-19T13:35:12.373Z,12.50
2023-02-19T13:37:39.392Z,12.60
2023-02-19T13:40:17.591Z,12.60
2023-02-19T13:42:56.850Z,12.60
2023-02-19T13:45:32.594Z,12.50
2023-02-19T13:48:03.098Z,12.40
2023-02-19T13:50:32.793Z,12.20
2023-02-19T13:53:01.571Z,12.20
2023-02-19T13:55:44.175Z,12.30
2023-02-19T13:58:32.383Z,12.40
2023-02-19T14:01:08.685Z,12.50
2023-02-19T14:04:06.949Z,12.40
2023-02-19T14:07:05.462Z,12.40
2023-02-19T14:09:39.790Z,12.40
2023-02-19T14:12:13.727Z,12.30
2023-02-19T14:14:55.666Z,12.20
2023-02-19T14:17:27.444Z,12.20
2023-02-19T14:19:56.697Z,12.10
2023-02-19T14:22:50.053Z,12.10
2023-02-19T14:25:22.751Z,12.10
2023-02-19T14:27:51.925Z,12.20
2023-02-19T14:30:19.126Z,12.30
2023-02-19T14:32:51.034Z,12.30
2023-02-19T14:35:20.998Z,12.30
2023-02-19T14:37:49.966Z,12.20
2023-02-19T14:40:41.696Z,12.20
2023-02-19T14:43:13.625Z,12.30
2023-02-19T14:45:44.374Z,12.30
2023-02-19T14:48:27.451Z,12.30
2023-02-19T14:50:58.857Z,12.40
2023-02-19T14:53:28.080Z,12.50
2023-02-19T14:55:56.594Z,12.50
2023-02-19T14:58:31.672Z,12.40
2023-02-19T15:00:58.734Z,12.30
2023-02-19T15:03:33.028Z,12.30
2023-02-19T15:06:07.068Z,12.20
2023-02-19T15:08:46.528Z,12.10
2023-02-19T15:11:20.514Z,12.10
2023-02-19T15:13:53.958Z,12.10
2023-02-19T15:16:25.363Z,12.10
2023-02-19T15:18:54.148Z,12.00
2023-02-19T15:21:32.547Z,11.90
2023-02-19T15:24:04.764Z,11.90
2023-02-19T15:26:40.965Z,11.80
2023-02-19T15:29:12.052Z,11.80
2023-02-19T15:31:49.033Z,11.80
2023-02-19T15:34:18.393Z,11.80
2023-02-19T15:36:45.343Z,11.60
2023-02-19T15:39:27.786Z,11.70
2023-02-19T15:42:00.677Z,11.70
2023-02-19T15:44:27.331Z,11.70
2023-02-19T15:46:55.631Z,11.70
2023-02-19T15:49:31.047Z,11.70
2023-02-19T15:52:10.622Z,11.70
2023-02-19T15:54:52.944Z,11.70
2023-02-19T15:57:26.025Z,11.70
2023-02-19T16:00:31.248Z,11.70
2023-02-19T16:02:58.731Z,11.70
2023-02-19T16:05:27.598Z,11.70
2023-02-19T16:08:09.069Z,11.70
2023-02-19T16:10:35.772Z,11.70
2023-02-19T16:13:04.625Z,11.70
2023-02-19T16:15:33.126Z,11.60
2023-02-19T16:18:00.387Z,11.60
2023-02-19T16:20:33.177Z,11.50
2023-02-19T16:23:24.855Z,11.50
2023-02-19T16:26:02.525Z,11.40
2023-02-19T16:28:35.469Z,11.40
2023-02-19T16:31:10.601Z,11.30
2023-02-19T16:33:46.470Z,11.30
2023-02-19T16:36:16.389Z,11.30
2023-02-19T16:39:07.836Z,11.30
2023-02-19T16:41:40.996Z,11.20
2023-02-19T16:44:27.596Z,11.10
2023-02-19T16:46:57.155Z,11.10
2023-02-19T16:49:24.455Z,11.10
2023-02-19T16:51:51.493Z,11.10
2023-02-19T16:54:18.164Z,11.10
2023-02-19T16:56:44.829Z,11.00
2023-02-19T16:59:11.469Z,11.00
2023-02-19T17:01:38.699Z,11.00
2023-02-19T17:04:08.883Z,11.00
2023-02-19T17:06:37.735Z,11.00
2023-02-19T17:09:06.529Z,11.00
2023-02-19T17:11:33.211Z,11.00
2023-02-19T17:14:00.119Z,11.00
2023-02-19T17:16:29.435Z,11.00
2023-02-19T17:18:56.458Z,11.00
2023-02-19T17:21:26.034Z,11.00
2023-02-19T17:23:53.929Z,11.00
2023-02-19T17:26:23.323Z,11.00
2023-02-19T17:28:50.058Z,11.00
2023-02-19T17:31:17.521Z,11.00
2023-02-19T17:33:44.669Z,10.90
2023-02-19T17:36:23.490Z,10.90
2023-02-19T17:38:50.450Z,10.90
2023-02-19T17:41:17.165Z,10.90
2023-02-19T17:43:43.876Z,10.90
2023-02-19T17:46:15.908Z,10.90
2023-02-19T17:48:42.678Z,10.90
2023-02-19T17:51:10.227Z,10.90
2023-02-19T17:53:37.136Z,10.90
2023-02-19T17:56:04.087Z,10.90
2023-02-19T17:58:30.800Z,10.90
2023-02-19T18:00:57.661Z,10.90
2023-02-19T18:03:24.965Z,10.90
2023-02-19T18:05:51.627Z,10.90
2023-02-19T18:08:18.322Z,10.90
2023-02-19T18:10:45.075Z,10.90
2023-02-19T18:13:12.135Z,10.90
2023-02-19T18:15:38.792Z,10.80
2023-02-19T18:18:05.602Z,10.80
2023-02-19T18:20:32.265Z,10.80
2023-02-19T18:22:59.109Z,10.80
2023-02-19T18:25:25.995Z,10.70
2023-02-19T18:27:53.479Z,10.70
2023-02-19T18:30:22.729Z,10.70
2023-02-19T18:32:50.268Z,10.60
2023-02-19T18:35:19.015Z,10.60
2023-02-19T18:37:49.156Z,10.60
2023-02-19T18:40:15.797Z,10.50
2023-02-19T18:42:42.450Z,10.50
2023-02-19T18:45:09.440Z,10.50
2023-02-19T18:47:36.120Z,10.50
2023-02-19T18:50:02.998Z,10.50
2023-02-19T18:52:29.693Z,10.50
2023-02-19T18:54:57.406Z,10.50
2023-02-19T18:57:25.208Z,10.50
2023-02-19T18:59:52.451Z,10.50
2023-02-19T19:02:19.756Z,10.50
2023-02-19T19:04:54.135Z,10.50
2023-02-19T19:07:22.012Z,10.50
2023-02-19T19:09:49.046Z,10.50
2023-02-19T19:12:16.633Z,10.50
2023-02-19T19:14:45.613Z,10.50
2023-02-19T19:17:12.395Z,10.50
2023-02-19T19:19:40.227Z,10.50
2023-02-19T19:22:07.020Z,10.50
2023-02-19T19:24:33.688Z,10.50
2023-02-19T19:27:00.329Z,10.50
2023-02-19T19:29:27.534Z,10.50
2023-02-19T19:31:54.338Z,10.50
2023-02-19T19:34:21.037Z,10.50
2023-02-19T19:36:47.811Z,10.50
2023-02-19T19:39:14.782Z,10.50
2023-02-19T19:41:41.578Z,10.50
2023-02-19T19:44:09.315Z,10.40
2023-02-19T19:46:42.496Z,10.40
2023-02-19T19:49:09.199Z,10.40
2023-02-19T19:51:35.997Z,10.40
2023-02-19T19:54:05.469Z,10.40
2023-02-19T19:56:32.110Z,10.40
2023-02-19T19:58:58.758Z,10.40
2023-02-19T20:01:25.463Z,10.40
2023-02-19T20:03:52.272Z,10.40
2023-02-19T20:06:30.623Z,10.40
2023-02-19T20:08:58.356Z,10.40
2023-02-19T20:11:25.032Z,10.40
2023-02-19T20:13:51.834Z,10.30
2023-02-19T20:16:25.609Z,10.40
2023-02-19T20:18:52.328Z,10.30
2023-02-19T20:21:19.284Z,10.30
2023-02-19T20:23:45.980Z,10.30
2023-02-19T20:26:12.660Z,10.30
2023-02-19T20:28:45.012Z,10.30
2023-02-19T20:31:12.342Z,10.30
2023-02-19T20:33:39.230Z,10.30
2023-02-19T20:36:06.390Z,10.30
2023-02-19T20:38:33.063Z,10.30
2023-02-19T20:40:59.784Z,10.30
2023-02-19T20:43:28.370Z,10.30
2023-02-19T20:45:55.272Z,10.30
2023-02-19T20:48:21.942Z,10.30
2023-02-19T20:50:48.615Z,10.30
2023-02-19T20:53:15.318Z,10.30
2023-02-19T20:55:41.950Z,10.30
2023-02-19T20:58:08.596Z,10.20
2023-02-19T21:00:35.262Z,10.20
2023-02-19T21:03:01.978Z,10.20
2023-02-19T21:05:28.703Z,10.20
2023-02-19T21:07:55.351Z,10.20
2023-02-19T21:10:22.091Z,10.20
2023-02-19T21:12:50.516Z,10.20
2023-02-19T21:15:17.398Z,10.20
2023-02-19T21:17:47.188Z,10.20
2023-02-19T21:20:15.173Z,10.20
2023-02-19T21:22:42.115Z,10.10
2023-02-19T21:25:08.788Z,10.20
2023-02-19T21:27:35.491Z,10.20
2023-02-19T21:30:02.719Z,10.10
2023-02-19T21:32:29.464Z,10.20
2023-02-19T21:34:56.826Z,10.10
2023-02-19T21:37:23.490Z,10.10
2023-02-19T21:39:50.432Z,10.10
2023-02-19T21:42:17.178Z,10.10
2023-02-19T21:44:43.913Z,10.10
2023-02-19T21:47:12.489Z,10.20
2023-02-19T21:49:41.747Z,10.10
2023-02-19T21:52:08.710Z,10.10
2023-02-19T21:54:35.368Z,10.20
2023-02-19T21:57:03.228Z,10.20
2023-02-19T21:59:29.906Z,10.10
2023-02-19T22:01:57.106Z,10.10
2023-02-19T22:04:27.271Z,10.10
2023-02-19T22:06:57.305Z,10.20
2023-02-19T22:09:24.335Z,10.20
2023-02-19T22:11:51.109Z,10.10
2023-02-19T22:14:17.787Z,10.20
2023-02-19T22:16:44.543Z,10.10
2023-02-19T22:19:12.761Z,10.10
2023-02-19T22:21:44.048Z,10.10
2023-02-19T22:24:19.277Z,10.10
2023-02-19T22:26:46.547Z,10.10
2023-02-19T22:29:15.200Z,10.10
2023-02-19T22:31:42.735Z,10.00
2023-02-19T22:34:09.737Z,10.00
2023-02-19T22:36:40.460Z,10.00
2023-02-19T22:39:10.546Z,10.00
2023-02-19T22:41:42.354Z,9.90
2023-02-19T22:44:10.495Z,9.90
2023-02-19T22:46:37.824Z,9.90
2023-02-19T22:49:06.102Z,9.90
2023-02-19T22:51:35.423Z,9.90
2023-02-19T22:54:02.146Z,9.90
2023-02-19T22:56:29.433Z,9.90
2023-02-19T22:58:57.381Z,9.90
2023-02-19T23:01:24.961Z,9.90
2023-02-19T23:03:56.838Z,9.90
2023-02-19T23:06:27.037Z,9.90
2023-02-19T23:08:55.137Z,9.90
2023-02-19T23:11:25.846Z,9.90
2023-02-19T23:13:53.421Z,9.90
2023-02-19T23:16:20.214Z,9.80
2023-02-19T23:18:47.072Z,9.80
2023-02-19T23:21:14.409Z,9.80
2023-02-19T23:23:42.307Z,9.80
2023-02-19T23:26:09.883Z,9.80
2023-02-19T23:28:36.713Z,9.70
2023-02-19T23:31:03.484Z,9.70
2023-02-19T23:33:30.826Z,9.60
2023-02-19T23:35:57.522Z,9.60
2023-02-19T23:38:24.415Z,9.60
2023-02-19T23:40:51.143Z,9.70
2023-02-19T23:43:17.983Z,9.70
2023-02-19T23:45:44.948Z,9.70
2023-02-19T23:48:11.602Z,9.60
2023-02-19T23:50:38.238Z,9.70
2023-02-19T23:53:05.308Z,9.60
2023-02-19T23:55:32.020Z,9.60
2023-02-19T23:57:58.815Z,9.60
